Jaime León

Chief Scout - Sevilla
6 Jan 2028
Thursday
Process

Personality

Adaptability (8) Ambition (15) Controversy (16) Loyalty (10) Pressure (3) Professionalism (13) Sportsmanship (15) Temperament (8)

Profile

Coaching Style Democratic
License National B
Determination 8
Man Management 11
Motivating 12
Discipline 6
Job Satisfaction
100%
Fatigue
0%
Role Chief Scout
Wage 58.2K p/w
Contract 14.03.2029

Performance

Behaviour Good
Training Effectiveness
49%
Player Development
30%
Injury Prevention
80%
Tactical Implementation
55%

Recent Events

Assessed a player now
Attended a recruitment meeting now
Recommended a transfer target now
Observed a match 7d ago
Presented a dossier to the board 7d ago
Presented a dossier to the board 7d ago
Presented a dossier to the board 7d ago
Presented a dossier to the board 7d ago

Currently Monitoring

179
Player Club Status Ability Confidence Watched Last Observed Latest Vote
Joaquín Gho Argentinos Juniors Active 128 / 130 40% 6 03.01.2028 -
Adrián Liso Zaragoza Active 130 / 129 86% 1 02.01.2028 Approve
Oscar Naasei Real Madrid Negotiating 127 / 125 86% 1 01.01.2028 -
Isaac Romero Monaco Active 151 / 140 40% 1 31.12.2027 -
Alejo Cruz Juventud Active 124 / 117 40% 1 31.12.2027 -
Brennan Johnson Stoke City Active 150 / 148 40% 1 31.12.2027 -
Oleh Ocheretko Austin FC Active 135 / 140 40% 4 29.12.2027 -
Tomás Silva Platense Active 125 / 124 40% 8 29.12.2027 -
Vinicinho Bragantino Active 131 / 128 40% 3 29.12.2027 -
Brooke Norton-Cuffy Inter Miami CF Active 135 / 142 40% 6 28.12.2027 -
Nəriman Axundzadə Columbus Crew Active 131 / 133 40% 3 28.12.2027 -
Victor Lind Hammarby Active 129 / 137 40% 1 28.12.2027 -
Tomás O'Connor Gimnasia y Esgrima Active 124 / 125 40% 5 27.12.2027 -
Santiago González Tigre Active 129 / 128 40% 4 27.12.2027 -
Kamory Doumbia Toulouse FC Active 145 / 146 40% 1 27.12.2027 -
Ignacio Perruzzi San Lorenzo Active 128 / 133 40% 4 26.12.2027 -
Quinn Sullivan Philadelphia Union Active 128 / 133 40% 6 26.12.2027 -
Mikel Jauregizar Athletic Bilbao Active 157 / 164 40% 3 25.12.2027 -
Armindo Sieb Los Angeles Football Club Active 121 / 117 40% 4 24.12.2027 -
Pablo Torre Mallorca Active 150 / 155 40% 1 24.12.2027 -
Alex Luna Instituto Active 128 / 135 40% 5 23.12.2027 -
Mohamed-Ali Cho Hull City Active 140 / 140 40% 4 23.12.2027 -
Juan Cruz de los Santos Nacional Active 127 / 125 40% 6 22.12.2027 -
Cauan Barros Vasco da Gama Active 130 / 138 40% 2 22.12.2027 -
Ralph Orquin Seattle Sounders Active 128 / 135 40% 1 18.12.2027 -
Kevin Paredes River Plate Active 136 / 135 40% 2 17.12.2027 -
Yankuba Minteh Brighton Active 158 / 160 40% 2 17.12.2027 -
Lucas Agazzi Defensor Sporting Active 121 / 124 40% 6 16.12.2027 -
Daniel Bassi Lillestrom Active 123 / 131 40% 3 15.12.2027 -
Mauricio Amaro Atlanta United FC Active 130 / 119 40% 4 15.12.2027 -
Ruben van Bommel Ferencvaros Active 142 / 132 40% 1 15.12.2027 -
Diego Luna Real Salt Lake Active 129 / 138 40% 6 13.12.2027 -
Paxten Aaronson Colorado Rapids Active 134 / 133 40% 4 13.12.2027 -
Karl Etta Eyong Levante Active 150 / 141 40% 1 13.12.2027 Needs More Info
Gustavo Neves Bragantino Active 132 / 126 40% 3 12.12.2027 -
Wilson Odobert Bristol City Active 146 / 148 40% 1 11.12.2027 -
Breno Bidon Corinthians Active 128 / 137 40% 1 09.12.2027 -
Nicolás Vallejo Leon Active 127 / 132 40% 2 06.12.2027 -
Lucas Assadi AIK Active 131 / 127 40% 3 05.12.2027 -
Mateo Castillo Millonarios Active 127 / 125 40% 4 04.12.2027 -
Telasco Segovia Inter Miami CF Active 139 / 130 40% 2 04.12.2027 -
Amin Boudri Los Angeles Football Club Active 129 / 125 40% 4 03.12.2027 -
David Valencia Alianza Petrolera Active 124 / 137 40% 4 28.11.2027 -
Samuel Velásquez Atletico Nacional Active 125 / 128 40% 7 27.11.2027 -
Juan Bezerra BK Hacken Active 124 / 126 40% 6 26.11.2027 -
Désiré Doué Paris Saint-Germain Active 163 / 171 40% 1 24.11.2027 -
Mateo Silvetti Los Angeles Football Club Active 132 / 137 40% 5 18.11.2027 -
Lucas Sanabria LA Galaxy Active 136 / 128 40% 1 18.11.2027 -
César Pérez Defensa y Justicia Active 129 / 128 40% 2 17.11.2027 -
Xavi Simons Tottenham Active 158 / 165 40% 1 12.11.2027 -
Jahkeele Marshall-Rutty New York Red Bulls Active 127 / 120 40% 1 10.11.2027 -
Elías Báez Atlanta United FC Active 128 / 126 40% 2 09.11.2027 -
Santiago López Independiente Active 123 / 131 40% 2 30.10.2027 -
Pedri Barcelona Active 183 / 185 40% 16 28.10.2027 -
Bénie Traoré New York City Active 128 / 117 40% 1 26.10.2027 -
Florian Wirtz Liverpool Active 174 / 175 40% 1 21.10.2027 -
Matías Abaldo Defensor Sporting Active 129 / 134 40% 1 16.10.2027 -
Sondre Auklend Bodo/Glimt Active 126 / 133 40% 3 15.10.2027 -
Daniel Karlsbakk Sarpsborg 08 Active 126 / 137 40% 1 13.10.2027 -
Hamzat Ojediran Colorado Rapids Active 121 / 117 40% 1 13.10.2027 -
Mayckel Lahdo Malmo FF Active 136 / 130 40% 1 10.10.2027 -
Yan Diomandé Real Madrid Active 160 / 157 40% 1 05.10.2027 -
Paulo Dybala AS Roma Active 158 / 158 40% 1 17.08.2027 -
Tiziano Dornell Danubio Active 115 / 123 40% 1 17.08.2027 -
Wilfrido De La Rosa Jaguares Active 116 / 119 40% 1 17.08.2027 -
Matheus Cunha Manchester United Active 162 / 166 40% 1 09.08.2027 -
Morgan Whittaker Middlesbrough Active 135 / 136 40% 1 05.08.2027 -
Callum O'Hare Sheffield United Active 136 / 129 40% 1 26.07.2027 -
Bradley Barcola Liverpool Active 167 / 165 40% 2 05.07.2027 -
Jonathan Dubasin Osasuna Active 147 / 152 40% 2 05.07.2027 -
Jan Bürger Gillingham Active 109 / 118 40% 3 14.06.2027 -
Darryl Bakola Padova Active 106 / 118 40% 2 14.06.2027 -
Leo Castledine Middlesbrough Active 127 / 139 40% 1 07.06.2027 -
Endrick Real Madrid Active 150 / 155 40% 1 07.06.2027 -
Kevin Vazquez Cruz Azul Active 140 / 134 40% 11 02.06.2027 -
Dylan Lawlor Cardiff City Active 113 / 127 40% 5 02.06.2027 -
Kang-In Lee Atlético Madrid Active 159 / 154 86% 1 02.06.2027 Approve
Jorrel Hato Chelsea Active 147 / 158 40% 7 30.05.2027 -
Ibrahim Maza Bayer Leverkusen Active 144 / 155 40% 6 28.05.2027 -
Ernie Weaver AFC Wimbledon Active 108 / 118 40% 6 28.05.2027 -
Izan Merino Málaga Active 121 / 120 40% 5 28.05.2027 -
Josh King Chelsea Active 141 / 151 40% 2 26.05.2027 -
Warren Zaïre-Emery Paris Saint-Germain Active 155 / 159 40% 8 26.05.2027 -
Christos Mouzakitis Hull City Active 131 / 140 40% 4 21.05.2027 -
Yusi Alavés Active 128 / 126 40% 6 20.05.2027 -
Alexandro Maidana Talleres Active 116 / 123 40% 1 20.05.2027 -
Lucas Høgsberg RC Strasbourg Active 135 / 143 40% 3 19.05.2027 -
Jofre Torrents Ajax Active 126 / 133 40% 3 19.05.2027 -
José Pachuca Puebla Active 115 / 123 40% 3 18.05.2027 -
Toni Tamarit Alverca Active 118 / 126 40% 3 18.05.2027 -
João Teixeira Porto Active 109 / 117 40% 2 07.05.2027 -
Matías Gómez Granada Active 115 / 125 40% 2 07.05.2027 -
Cheveyo Tsawa Club Brugge Active 118 / 129 40% 2 07.05.2027 -
Marc Bernal Real Sociedad Active 145 / 146 40% 1 06.05.2027 -
Johan Manzambi Newcastle United Active 139 / 147 40% 1 06.05.2027 -
Gonçalo Oliveira Benfica Active 107 / 115 40% 4 03.05.2027 -
Khalis Merah Toulouse FC Active 124 / 127 40% 5 30.04.2027 -
Christ Inao Oulaï Fiorentina Active 133 / 142 40% 4 25.04.2027 -
Riley Owen Trento Active 99 / 105 40% 1 18.04.2027 -
Matvey Kislyak CSKA Moscow Active 130 / 148 40% 1 16.04.2027 -
Louis Leroux FC Nantes Active 128 / 130 40% 2 12.04.2027 -
Finn Jeltsch VfB Stuttgart Active 138 / 144 40% 1 08.04.2027 -
James Dornelly Peterborough United Active 103 / 112 40% 2 06.04.2027 -
Juan Giménez Celta Active 116 / 133 40% 1 06.04.2027 -
Tiago Freitas Benfica Active 112 / 113 40% 2 19.03.2027 -
Amadou Niang Al Ain Active 108 / 105 40% 1 17.03.2027 -
David Ozoh Derby County Active 120 / 133 40% 2 13.03.2027 -
João Simões Sporting CP Active 127 / 139 40% 1 12.03.2027 -
Joaquin Seys Club Brugge Active 128 / 127 40% 2 11.03.2027 -
Jack Hinshelwood Brighton Active 141 / 142 40% 2 10.03.2027 -
Nico O'Reilly Manchester City Active 149 / 155 40% 2 02.03.2027 -
Javi Puado Espanyol Active 145 / 148 40% 1 11.01.2027 -
Iñaki Williams Athletic Bilbao Active 157 / 161 40% 1 11.01.2027 -
Marvin Keller Bayer Leverkusen Negotiating 136 / 137 67% 1 01.01.2027 Approve
Dmytro Riznyk Cruz Azul Lost 137 / 137 66% 1 01.01.2027 Approve
Fotis Ioannidis Rio Ave Negotiating 136 / 136 67% 1 01.01.2027 Approve
Erick Reyes Toluca Active 135 / 143 40% 1 31.12.2026 -
André-Franck Zambo Anguissa Barcelona Active 163 / 168 40% 5 29.12.2026 -
Alejandro Grimaldo Atlético Madrid Active 167 / 155 40% 5 29.12.2026 -
Alexis Mac Allister Liverpool Active 161 / 163 40% 6 29.12.2026 -
Aurélien Tchouaméni Real Madrid Active 170 / 171 40% 8 28.12.2026 -
Marc Guéhi Manchester City Active 166 / 171 40% 8 28.12.2026 -
Matthijs de Ligt Manchester United Active 161 / 161 40% 5 28.12.2026 -
Leon Goretzka Aston Villa Active 158 / 159 40% 2 27.12.2026 -
Mats Wieffer Brighton Active 150 / 154 40% 3 27.12.2026 -
Ilaix Moriba Celta Active 149 / 154 40% 1 26.12.2026 -
Achraf Hakimi Paris Saint-Germain Active 182 / 170 40% 3 24.12.2026 -
Noussair Mazraoui Manchester United Active 151 / 145 40% 1 24.12.2026 -
Wesley Fofana Chelsea Active 162 / 168 40% 2 23.12.2026 -
Bruno Guimarães Arsenal Active 172 / 165 40% 4 22.12.2026 -
Tyler Adams Bournemouth Active 155 / 152 40% 5 22.12.2026 -
Gavi Barcelona Active 162 / 160 40% 3 20.12.2026 -
Hector Ramirez Newcastle United Active 153 / 156 40% 9 20.12.2026 -
Johnny Cardoso Atlético Madrid Active 151 / 153 40% 5 19.12.2026 -
Nico González Newcastle United Active 158 / 163 40% 6 17.12.2026 -
Moisés Caicedo Chelsea Active 170 / 165 40% 4 12.12.2026 -
Pape Guèye Villarreal Active 146 / 152 40% 6 10.12.2026 -
Declan Rice Arsenal Active 184 / 183 40% 5 10.12.2026 -
Pablo Barrios Atlético Madrid Active 158 / 165 40% 4 09.12.2026 -
Federico Valverde Real Madrid Active 174 / 172 40% 6 09.12.2026 -
Jesús Areso Athletic Bilbao Active 137 / 137 40% 2 09.12.2026 -
Yangel Herrera Real Sociedad Active 140 / 140 40% 1 08.12.2026 -
Aitor Paredes Athletic Bilbao Active 150 / 150 40% 1 08.12.2026 -
Quinten Timber Crystal Palace Active 146 / 154 40% 1 04.12.2026 -
Enzo Fernández Manchester City Active 166 / 175 40% 6 02.12.2026 -
Mauro Arambarri River Plate Active 154 / 153 40% 9 26.11.2026 -
Vitinha Paris Saint-Germain Active 176 / 184 40% 2 26.11.2026 -
Sandro Tonali Tottenham Active 173 / 174 40% 3 26.11.2026 -
Pedro Porro Tottenham Active 150 / 141 40% 1 25.11.2026 -
Gabriel Arsenal Active 168 / 170 40% 2 22.11.2026 -
Amadou Onana Aston Villa Active 151 / 157 40% 5 21.11.2026 -
Frenkie de Jong Barcelona Active 172 / 168 40% 3 19.11.2026 -
Martín Zubimendi Arsenal Active 165 / 162 40% 2 18.11.2026 -
Adrien Truffert Bournemouth Active 148 / 156 40% 2 11.11.2026 -
William Saliba Arsenal Active 177 / 173 40% 3 09.11.2026 -
Rodri Barcelona Active 181 / 174 40% 3 08.11.2026 -
Levi Colwill Chelsea Active 157 / 164 40% 5 07.11.2026 -
Trent Alexander-Arnold Real Madrid Active 161 / 163 40% 1 06.11.2026 -
Tino Livramento Newcastle United Active 152 / 163 40% 1 06.11.2026 -
Arnau Martínez Valencia Active 145 / 139 40% 1 04.11.2026 -
Jurriën Timber Arsenal Active 162 / 164 40% 2 31.10.2026 -
Óscar Mingueza Crystal Palace Active 147 / 145 40% 1 28.10.2026 -
Dominik Szoboszlai Liverpool Active 164 / 165 40% 1 22.10.2026 -
James Cardona La Equidad Active 144 / 149 40% 3 21.10.2026 -
Santi Comesaña Villarreal Active 150 / 152 40% 2 17.10.2026 -
Denzel Dumfries Real Madrid Active 163 / 162 40% 1 05.10.2026 -
Sven Botman Newcastle United Active 158 / 154 40% 1 30.09.2026 -
Rúben Dias Manchester City Active 167 / 173 40% 1 30.09.2026 -
Jules Koundé Barcelona Active 159 / 153 40% 1 19.09.2026 -
Anton Stach Leeds United Active 144 / 141 40% 1 17.09.2026 -
Marc Cucurella Real Madrid Active 151 / 146 40% 1 14.09.2026 -
Bryan Mbeumo Manchester United Active 154 / 147 40% 1 27.08.2026 -
Carlos Moreno Pachuca Active 125 / 115 40% 1 17.08.2026 -
Gianluigi Donnarumma Manchester City Active 168 / 166 40% 1 17.08.2026 -
Alexander Isak Liverpool Active 174 / 166 40% 1 03.08.2026 -
Dani Olmo Barcelona Active 157 / 170 40% 1 03.08.2026 -
Rodrygo Real Madrid Active 164 / 161 40% 1 03.08.2026 -
Nicolas Jackson Aston Villa Active 144 / 142 40% 1 02.08.2026 -
Hugo Ekitiké Liverpool Active 160 / 163 40% 1 02.08.2026 -